sensor_id;sensor_type;location;lat;lon;timestamp;P1;durP1;ratioP1;P2;durP2;ratioP2
5871;SDS011;2962;51.312;7.378;2022-12-18T00:01:46;1.77;;;1.50;;
5871;SDS011;2962;51.312;7.378;2022-12-18T00:04:15;2.17;;;2.07;;
5871;SDS011;2962;51.312;7.378;2022-12-18T00:06:44;2.15;;;1.95;;
5871;SDS011;2962;51.312;7.378;2022-12-18T00:09:10;1.93;;;1.83;;
5871;SDS011;2962;51.312;7.378;2022-12-18T00:11:35;1.70;;;1.70;;
5871;SDS011;2962;51.312;7.378;2022-12-18T00:14:00;2.17;;;2.07;;
5871;SDS011;2962;51.312;7.378;2022-12-18T00:16:26;2.40;;;2.20;;
5871;SDS011;2962;51.312;7.378;2022-12-18T00:18:53;2.30;;;2.15;;
5871;SDS011;2962;51.312;7.378;2022-12-18T00:21:20;3.15;;;2.72;;
5871;SDS011;2962;51.312;7.378;2022-12-18T00:23:46;2.30;;;2.20;;
5871;SDS011;2962;51.312;7.378;2022-12-18T00:26:14;2.00;;;1.90;;
5871;SDS011;2962;51.312;7.378;2022-12-18T00:28:43;2.95;;;2.42;;
5871;SDS011;2962;51.312;7.378;2022-12-18T00:31:10;2.85;;;2.75;;
5871;SDS011;2962;51.312;7.378;2022-12-18T00:33:41;2.22;;;2.13;;
5871;SDS011;2962;51.312;7.378;2022-12-18T00:36:13;2.10;;;2.00;;
5871;SDS011;2962;51.312;7.378;2022-12-18T00:38:39;4.03;;;2.47;;
5871;SDS011;2962;51.312;7.378;2022-12-18T00:41:05;7.80;;;2.37;;
5871;SDS011;2962;51.312;7.378;2022-12-18T00:43:30;2.50;;;2.40;;
5871;SDS011;2962;51.312;7.378;2022-12-18T00:45:56;2.47;;;2.27;;
5871;SDS011;2962;51.312;7.378;2022-12-18T00:48:21;2.17;;;2.00;;
5871;SDS011;2962;51.312;7.378;2022-12-18T00:50:47;2.93;;;2.50;;
5871;SDS011;2962;51.312;7.378;2022-12-18T00:53:14;2.20;;;2.10;;
5871;SDS011;2962;51.312;7.378;2022-12-18T00:55:39;2.03;;;1.80;;
5871;SDS011;2962;51.312;7.378;2022-12-18T00:58:05;2.58;;;2.40;;
5871;SDS011;2962;51.312;7.378;2022-12-18T01:00:31;2.63;;;2.50;;
5871;SDS011;2962;51.312;7.378;2022-12-18T01:02:56;2.47;;;2.33;;
5871;SDS011;2962;51.312;7.378;2022-12-18T01:05:22;2.80;;;2.50;;
5871;SDS011;2962;51.312;7.378;2022-12-18T01:07:47;2.73;;;2.10;;
5871;SDS011;2962;51.312;7.378;2022-12-18T01:10:12;2.90;;;2.70;;
5871;SDS011;2962;51.312;7.378;2022-12-18T01:12:38;2.50;;;2.40;;
5871;SDS011;2962;51.312;7.378;2022-12-18T01:15:04;3.30;;;3.10;;
5871;SDS011;2962;51.312;7.378;2022-12-18T01:17:30;2.03;;;2.03;;
5871;SDS011;2962;51.312;7.378;2022-12-18T01:19:56;5.23;;;2.73;;
5871;SDS011;2962;51.312;7.378;2022-12-18T01:22:21;2.40;;;2.30;;
5871;SDS011;2962;51.312;7.378;2022-12-18T01:24:46;2.70;;;2.60;;
5871;SDS011;2962;51.312;7.378;2022-12-18T01:27:12;2.07;;;2.00;;
5871;SDS011;2962;51.312;7.378;2022-12-18T01:29:37;2.50;;;2.30;;
5871;SDS011;2962;51.312;7.378;2022-12-18T01:32:02;3.77;;;2.80;;
5871;SDS011;2962;51.312;7.378;2022-12-18T01:34:28;2.00;;;1.90;;
5871;SDS011;2962;51.312;7.378;2022-12-18T01:36:53;2.67;;;2.37;;
5871;SDS011;2962;51.312;7.378;2022-12-18T01:39:18;2.83;;;2.60;;
5871;SDS011;2962;51.312;7.378;2022-12-18T01:41:44;3.10;;;2.83;;
5871;SDS011;2962;51.312;7.378;2022-12-18T01:47:20;2.75;;;2.53;;
5871;SDS011;2962;51.312;7.378;2022-12-18T01:49:49;2.40;;;2.30;;
5871;SDS011;2962;51.312;7.378;2022-12-18T01:52:15;2.85;;;2.67;;
5871;SDS011;2962;51.312;7.378;2022-12-18T01:54:42;2.63;;;2.53;;
5871;SDS011;2962;51.312;7.378;2022-12-18T01:57:08;2.47;;;2.17;;
5871;SDS011;2962;51.312;7.378;2022-12-18T01:59:34;2.73;;;2.60;;
5871;SDS011;2962;51.312;7.378;2022-12-18T02:02:01;3.45;;;2.63;;
5871;SDS011;2962;51.312;7.378;2022-12-18T02:04:27;2.57;;;2.37;;
5871;SDS011;2962;51.312;7.378;2022-12-18T02:07:03;2.33;;;2.23;;
5871;SDS011;2962;51.312;7.378;2022-12-18T02:09:39;4.50;;;2.47;;
5871;SDS011;2962;51.312;7.378;2022-12-18T02:12:21;2.80;;;2.60;;
5871;SDS011;2962;51.312;7.378;2022-12-18T02:14:52;3.00;;;2.80;;
5871;SDS011;2962;51.312;7.378;2022-12-18T02:17:32;3.45;;;2.15;;
5871;SDS011;2962;51.312;7.378;2022-12-18T02:20:16;2.47;;;2.35;;
5871;SDS011;2962;51.312;7.378;2022-12-18T02:25:32;2.28;;;2.17;;
5871;SDS011;2962;51.312;7.378;2022-12-18T02:28:06;2.05;;;1.90;;
5871;SDS011;2962;51.312;7.378;2022-12-18T02:30:35;2.67;;;2.55;;
5871;SDS011;2962;51.312;7.378;2022-12-18T02:33:04;2.30;;;2.20;;
5871;SDS011;2962;51.312;7.378;2022-12-18T02:35:31;2.72;;;2.45;;
5871;SDS011;2962;51.312;7.378;2022-12-18T02:37:58;2.40;;;2.30;;
5871;SDS011;2962;51.312;7.378;2022-12-18T02:40:24;2.10;;;2.00;;
5871;SDS011;2962;51.312;7.378;2022-12-18T02:42:52;3.28;;;3.08;;
5871;SDS011;2962;51.312;7.378;2022-12-18T02:45:18;2.40;;;2.20;;
5871;SDS011;2962;51.312;7.378;2022-12-18T02:47:45;2.77;;;2.57;;
5871;SDS011;2962;51.312;7.378;2022-12-18T02:50:22;2.63;;;2.53;;
5871;SDS011;2962;51.312;7.378;2022-12-18T02:52:58;2.60;;;2.03;;
5871;SDS011;2962;51.312;7.378;2022-12-18T03:01:11;2.50;;;2.30;;
5871;SDS011;2962;51.312;7.378;2022-12-18T03:06:32;2.88;;;2.67;;
5871;SDS011;2962;51.312;7.378;2022-12-18T03:09:02;6.50;;;2.33;;
5871;SDS011;2962;51.312;7.378;2022-12-18T03:11:32;2.47;;;2.28;;
5871;SDS011;2962;51.312;7.378;2022-12-18T03:14:20;2.30;;;2.20;;
5871;SDS011;2962;51.312;7.378;2022-12-18T03:16:49;3.35;;;2.30;;
5871;SDS011;2962;51.312;7.378;2022-12-18T03:19:18;2.88;;;2.70;;
5871;SDS011;2962;51.312;7.378;2022-12-18T03:21:48;2.17;;;2.00;;
5871;SDS011;2962;51.312;7.378;2022-12-18T03:24:17;2.35;;;2.25;;
5871;SDS011;2962;51.312;7.378;2022-12-18T03:26:45;2.33;;;2.22;;
5871;SDS011;2962;51.312;7.378;2022-12-18T03:29:17;2.67;;;2.47;;
5871;SDS011;2962;51.312;7.378;2022-12-18T03:31:47;3.60;;;2.20;;
5871;SDS011;2962;51.312;7.378;2022-12-18T03:34:17;2.10;;;2.10;;
5871;SDS011;2962;51.312;7.378;2022-12-18T03:36:48;2.30;;;2.15;;
5871;SDS011;2962;51.312;7.378;2022-12-18T03:39:14;1.90;;;1.83;;
5871;SDS011;2962;51.312;7.378;2022-12-18T03:42:01;2.43;;;2.20;;
5871;SDS011;2962;51.312;7.378;2022-12-18T03:44:44;2.83;;;2.55;;
5871;SDS011;2962;51.312;7.378;2022-12-18T03:47:32;1.70;;;1.70;;
5871;SDS011;2962;51.312;7.378;2022-12-18T03:50:07;2.08;;;1.98;;
5871;SDS011;2962;51.312;7.378;2022-12-18T03:53:18;1.80;;;1.80;;
5871;SDS011;2962;51.312;7.378;2022-12-18T03:55:29;2.80;;;2.20;;
5871;SDS011;2962;51.312;7.378;2022-12-18T03:57:58;3.50;;;2.20;;
5871;SDS011;2962;51.312;7.378;2022-12-18T04:00:26;3.15;;;2.33;;
5871;SDS011;2962;51.312;7.378;2022-12-18T04:02:54;3.60;;;2.60;;
5871;SDS011;2962;51.312;7.378;2022-12-18T04:05:21;1.88;;;1.88;;
5871;SDS011;2962;51.312;7.378;2022-12-18T04:07:49;1.90;;;1.90;;
5871;SDS011;2962;51.312;7.378;2022-12-18T04:10:16;2.83;;;2.63;;
5871;SDS011;2962;51.312;7.378;2022-12-18T04:12:42;2.13;;;2.13;;
5871;SDS011;2962;51.312;7.378;2022-12-18T04:15:08;2.63;;;2.53;;
5871;SDS011;2962;51.312;7.378;2022-12-18T04:17:35;2.42;;;2.15;;
5871;SDS011;2962;51.312;7.378;2022-12-18T04:20:00;2.00;;;1.90;;
5871;SDS011;2962;51.312;7.378;2022-12-18T04:22:25;2.60;;;2.40;;
5871;SDS011;2962;51.312;7.378;2022-12-18T04:24:50;3.93;;;3.50;;
5871;SDS011;2962;51.312;7.378;2022-12-18T04:27:16;2.80;;;2.57;;
5871;SDS011;2962;51.312;7.378;2022-12-18T04:29:41;2.87;;;2.67;;
5871;SDS011;2962;51.312;7.378;2022-12-18T04:32:06;3.27;;;3.07;;
5871;SDS011;2962;51.312;7.378;2022-12-18T04:34:32;3.13;;;2.93;;
5871;SDS011;2962;51.312;7.378;2022-12-18T04:36:57;3.13;;;2.93;;
5871;SDS011;2962;51.312;7.378;2022-12-18T04:39:22;4.80;;;2.93;;
5871;SDS011;2962;51.312;7.378;2022-12-18T04:41:48;3.23;;;2.93;;
5871;SDS011;2962;51.312;7.378;2022-12-18T04:44:13;2.63;;;2.40;;
5871;SDS011;2962;51.312;7.378;2022-12-18T04:46:38;5.87;;;3.03;;
5871;SDS011;2962;51.312;7.378;2022-12-18T04:49:04;4.40;;;3.00;;
5871;SDS011;2962;51.312;7.378;2022-12-18T04:51:29;3.20;;;3.00;;
5871;SDS011;2962;51.312;7.378;2022-12-18T04:53:54;3.17;;;3.03;;
5871;SDS011;2962;51.312;7.378;2022-12-18T04:56:19;4.13;;;2.37;;
5871;SDS011;2962;51.312;7.378;2022-12-18T04:58:45;3.43;;;2.70;;
5871;SDS011;2962;51.312;7.378;2022-12-18T05:01:11;3.30;;;2.80;;
5871;SDS011;2962;51.312;7.378;2022-12-18T05:03:38;2.75;;;2.47;;
5871;SDS011;2962;51.312;7.378;2022-12-18T05:06:04;2.77;;;2.53;;
5871;SDS011;2962;51.312;7.378;2022-12-18T05:08:29;2.55;;;2.35;;
5871;SDS011;2962;51.312;7.378;2022-12-18T05:11:02;2.97;;;2.77;;
5871;SDS011;2962;51.312;7.378;2022-12-18T05:13:32;3.72;;;2.42;;
5871;SDS011;2962;51.312;7.378;2022-12-18T05:15:57;2.70;;;2.43;;
5871;SDS011;2962;51.312;7.378;2022-12-18T05:18:23;2.37;;;2.27;;
5871;SDS011;2962;51.312;7.378;2022-12-18T05:20:50;2.05;;;2.05;;
5871;SDS011;2962;51.312;7.378;2022-12-18T05:23:16;2.72;;;2.53;;
5871;SDS011;2962;51.312;7.378;2022-12-18T05:25:42;2.90;;;2.00;;
5871;SDS011;2962;51.312;7.378;2022-12-18T05:28:07;4.20;;;2.47;;
5871;SDS011;2962;51.312;7.378;2022-12-18T05:30:33;2.70;;;2.40;;
5871;SDS011;2962;51.312;7.378;2022-12-18T05:32:58;2.40;;;2.30;;
5871;SDS011;2962;51.312;7.378;2022-12-18T05:35:24;2.03;;;1.97;;
5871;SDS011;2962;51.312;7.378;2022-12-18T05:37:49;2.87;;;2.27;;
5871;SDS011;2962;51.312;7.378;2022-12-18T05:40:14;2.43;;;2.20;;
5871;SDS011;2962;51.312;7.378;2022-12-18T05:42:40;2.40;;;2.30;;
5871;SDS011;2962;51.312;7.378;2022-12-18T05:45:05;3.13;;;2.33;;
5871;SDS011;2962;51.312;7.378;2022-12-18T05:47:31;2.13;;;2.03;;
5871;SDS011;2962;51.312;7.378;2022-12-18T05:49:56;6.47;;;2.97;;
5871;SDS011;2962;51.312;7.378;2022-12-18T05:52:21;2.80;;;2.40;;
5871;SDS011;2962;51.312;7.378;2022-12-18T05:54:47;3.03;;;2.73;;
5871;SDS011;2962;51.312;7.378;2022-12-18T05:57:12;3.63;;;3.23;;
5871;SDS011;2962;51.312;7.378;2022-12-18T05:59:38;6.07;;;3.70;;
5871;SDS011;2962;51.312;7.378;2022-12-18T06:02:03;3.17;;;2.87;;
5871;SDS011;2962;51.312;7.378;2022-12-18T06:04:28;4.47;;;2.80;;
5871;SDS011;2962;51.312;7.378;2022-12-18T06:06:55;2.88;;;2.75;;
5871;SDS011;2962;51.312;7.378;2022-12-18T06:09:21;2.30;;;2.20;;
5871;SDS011;2962;51.312;7.378;2022-12-18T06:11:46;2.67;;;2.33;;
5871;SDS011;2962;51.312;7.378;2022-12-18T06:14:11;2.97;;;2.77;;
5871;SDS011;2962;51.312;7.378;2022-12-18T06:16:36;3.50;;;3.20;;
5871;SDS011;2962;51.312;7.378;2022-12-18T06:19:03;3.10;;;2.90;;
5871;SDS011;2962;51.312;7.378;2022-12-18T06:21:30;3.13;;;3.00;;
5871;SDS011;2962;51.312;7.378;2022-12-18T06:23:55;2.95;;;2.70;;
5871;SDS011;2962;51.312;7.378;2022-12-18T06:26:21;4.40;;;3.00;;
5871;SDS011;2962;51.312;7.378;2022-12-18T06:28:47;8.90;;;3.27;;
5871;SDS011;2962;51.312;7.378;2022-12-18T06:31:12;3.07;;;2.87;;
5871;SDS011;2962;51.312;7.378;2022-12-18T06:33:37;4.73;;;3.63;;
5871;SDS011;2962;51.312;7.378;2022-12-18T06:36:10;3.47;;;3.23;;
5871;SDS011;2962;51.312;7.378;2022-12-18T06:38:38;6.00;;;3.03;;
5871;SDS011;2962;51.312;7.378;2022-12-18T06:41:09;3.58;;;2.85;;
5871;SDS011;2962;51.312;7.378;2022-12-18T06:43:39;3.20;;;2.90;;
5871;SDS011;2962;51.312;7.378;2022-12-18T06:46:05;3.67;;;3.47;;
5871;SDS011;2962;51.312;7.378;2022-12-18T06:48:31;3.80;;;3.23;;
5871;SDS011;2962;51.312;7.378;2022-12-18T06:50:56;3.47;;;3.13;;
5871;SDS011;2962;51.312;7.378;2022-12-18T06:53:22;4.37;;;3.80;;
5871;SDS011;2962;51.312;7.378;2022-12-18T06:55:47;3.40;;;2.97;;
5871;SDS011;2962;51.312;7.378;2022-12-18T06:58:13;4.10;;;3.60;;
5871;SDS011;2962;51.312;7.378;2022-12-18T07:00:38;6.03;;;3.20;;
5871;SDS011;2962;51.312;7.378;2022-12-18T07:03:03;3.53;;;3.23;;
5871;SDS011;2962;51.312;7.378;2022-12-18T07:05:29;12.00;;;3.70;;
5871;SDS011;2962;51.312;7.378;2022-12-18T07:07:54;3.30;;;2.90;;
5871;SDS011;2962;51.312;7.378;2022-12-18T07:10:19;8.27;;;3.60;;
5871;SDS011;2962;51.312;7.378;2022-12-18T07:12:45;2.60;;;2.40;;
5871;SDS011;2962;51.312;7.378;2022-12-18T07:15:10;3.00;;;2.80;;
5871;SDS011;2962;51.312;7.378;2022-12-18T07:17:35;5.13;;;3.20;;
5871;SDS011;2962;51.312;7.378;2022-12-18T07:20:01;4.37;;;3.30;;
5871;SDS011;2962;51.312;7.378;2022-12-18T07:22:26;2.77;;;2.60;;
5871;SDS011;2962;51.312;7.378;2022-12-18T07:24:52;3.43;;;3.10;;
5871;SDS011;2962;51.312;7.378;2022-12-18T07:27:17;3.43;;;3.20;;
5871;SDS011;2962;51.312;7.378;2022-12-18T07:29:42;5.83;;;3.90;;
5871;SDS011;2962;51.312;7.378;2022-12-18T07:32:08;10.37;;;4.10;;
5871;SDS011;2962;51.312;7.378;2022-12-18T07:34:33;3.10;;;2.90;;
5871;SDS011;2962;51.312;7.378;2022-12-18T07:36:58;4.07;;;3.70;;
5871;SDS011;2962;51.312;7.378;2022-12-18T07:39:24;6.47;;;3.33;;
5871;SDS011;2962;51.312;7.378;2022-12-18T07:41:49;3.17;;;2.87;;
5871;SDS011;2962;51.312;7.378;2022-12-18T07:44:34;3.13;;;2.83;;
5871;SDS011;2962;51.312;7.378;2022-12-18T07:47:00;3.67;;;3.35;;
5871;SDS011;2962;51.312;7.378;2022-12-18T07:49:26;2.07;;;1.97;;
5871;SDS011;2962;51.312;7.378;2022-12-18T07:51:51;3.47;;;3.00;;
5871;SDS011;2962;51.312;7.378;2022-12-18T07:54:20;3.03;;;2.72;;
5871;SDS011;2962;51.312;7.378;2022-12-18T07:56:45;3.20;;;2.90;;
5871;SDS011;2962;51.312;7.378;2022-12-18T07:59:10;3.27;;;3.00;;
5871;SDS011;2962;51.312;7.378;2022-12-18T08:01:35;3.90;;;3.20;;
5871;SDS011;2962;51.312;7.378;2022-12-18T08:04:01;2.60;;;2.40;;
5871;SDS011;2962;51.312;7.378;2022-12-18T08:06:26;3.03;;;2.90;;
5871;SDS011;2962;51.312;7.378;2022-12-18T08:08:52;2.83;;;2.63;;
5871;SDS011;2962;51.312;7.378;2022-12-18T08:11:18;2.72;;;2.60;;
5871;SDS011;2962;51.312;7.378;2022-12-18T08:13:43;3.20;;;2.40;;
5871;SDS011;2962;51.312;7.378;2022-12-18T08:16:09;3.23;;;2.57;;
5871;SDS011;2962;51.312;7.378;2022-12-18T08:18:37;3.13;;;2.93;;
5871;SDS011;2962;51.312;7.378;2022-12-18T08:21:12;2.63;;;2.42;;
5871;SDS011;2962;51.312;7.378;2022-12-18T08:23:40;2.50;;;2.30;;
5871;SDS011;2962;51.312;7.378;2022-12-18T08:26:05;3.63;;;3.20;;
5871;SDS011;2962;51.312;7.378;2022-12-18T08:28:31;2.33;;;2.23;;
5871;SDS011;2962;51.312;7.378;2022-12-18T08:30:56;2.90;;;2.70;;
5871;SDS011;2962;51.312;7.378;2022-12-18T08:33:21;3.10;;;2.90;;
5871;SDS011;2962;51.312;7.378;2022-12-18T08:35:47;7.77;;;5.30;;
5871;SDS011;2962;51.312;7.378;2022-12-18T08:38:12;3.00;;;2.90;;
5871;SDS011;2962;51.312;7.378;2022-12-18T08:40:37;3.80;;;3.47;;
5871;SDS011;2962;51.312;7.378;2022-12-18T08:43:03;3.13;;;2.93;;
5871;SDS011;2962;51.312;7.378;2022-12-18T08:45:46;4.97;;;3.85;;
5871;SDS011;2962;51.312;7.378;2022-12-18T08:48:12;3.37;;;3.13;;
5871;SDS011;2962;51.312;7.378;2022-12-18T08:50:37;3.33;;;3.10;;
5871;SDS011;2962;51.312;7.378;2022-12-18T08:53:02;6.33;;;2.90;;
5871;SDS011;2962;51.312;7.378;2022-12-18T08:55:28;2.43;;;2.23;;
5871;SDS011;2962;51.312;7.378;2022-12-18T08:57:53;3.90;;;3.60;;
5871;SDS011;2962;51.312;7.378;2022-12-18T09:00:19;4.40;;;4.10;;
5871;SDS011;2962;51.312;7.378;2022-12-18T09:02:44;8.27;;;3.40;;
5871;SDS011;2962;51.312;7.378;2022-12-18T09:05:10;2.73;;;2.63;;
5871;SDS011;2962;51.312;7.378;2022-12-18T09:07:35;4.63;;;4.10;;
5871;SDS011;2962;51.312;7.378;2022-12-18T09:10:00;4.63;;;4.07;;
5871;SDS011;2962;51.312;7.378;2022-12-18T09:12:26;5.40;;;4.90;;
5871;SDS011;2962;51.312;7.378;2022-12-18T09:14:51;4.17;;;3.77;;
5871;SDS011;2962;51.312;7.378;2022-12-18T09:17:16;5.17;;;4.73;;
5871;SDS011;2962;51.312;7.378;2022-12-18T09:19:42;3.13;;;3.03;;
5871;SDS011;2962;51.312;7.378;2022-12-18T09:22:08;4.13;;;3.80;;
5871;SDS011;2962;51.312;7.378;2022-12-18T09:24:34;3.08;;;2.92;;
5871;SDS011;2962;51.312;7.378;2022-12-18T09:27:00;3.07;;;2.83;;
5871;SDS011;2962;51.312;7.378;2022-12-18T09:29:25;6.13;;;4.90;;
5871;SDS011;2962;51.312;7.378;2022-12-18T09:31:50;6.53;;;3.93;;
5871;SDS011;2962;51.312;7.378;2022-12-18T09:34:16;4.63;;;4.23;;
5871;SDS011;2962;51.312;7.378;2022-12-18T09:36:41;4.20;;;3.90;;
5871;SDS011;2962;51.312;7.378;2022-12-18T09:39:07;5.03;;;4.53;;
5871;SDS011;2962;51.312;7.378;2022-12-18T09:44:14;5.53;;;3.13;;
5871;SDS011;2962;51.312;7.378;2022-12-18T09:46:43;3.22;;;2.92;;
5871;SDS011;2962;51.312;7.378;2022-12-18T09:49:14;7.55;;;4.32;;
5871;SDS011;2962;51.312;7.378;2022-12-18T09:54:37;11.07;;;5.88;;
5871;SDS011;2962;51.312;7.378;2022-12-18T09:57:06;2.30;;;2.20;;
5871;SDS011;2962;51.312;7.378;2022-12-18T09:59:38;2.78;;;2.67;;
5871;SDS011;2962;51.312;7.378;2022-12-18T10:02:14;4.55;;;3.58;;
5871;SDS011;2962;51.312;7.378;2022-12-18T10:04:41;2.55;;;2.38;;
5871;SDS011;2962;51.312;7.378;2022-12-18T10:21:15;2.53;;;2.38;;
5871;SDS011;2962;51.312;7.378;2022-12-18T10:23:48;2.15;;;2.10;;
5871;SDS011;2962;51.312;7.378;2022-12-18T10:26:33;8.15;;;4.13;;
5871;SDS011;2962;51.312;7.378;2022-12-18T10:28:58;4.03;;;3.63;;
5871;SDS011;2962;51.312;7.378;2022-12-18T10:31:24;2.80;;;2.60;;
5871;SDS011;2962;51.312;7.378;2022-12-18T10:33:50;2.70;;;2.50;;
5871;SDS011;2962;51.312;7.378;2022-12-18T10:36:16;4.40;;;3.07;;
5871;SDS011;2962;51.312;7.378;2022-12-18T10:38:41;2.30;;;2.20;;
5871;SDS011;2962;51.312;7.378;2022-12-18T10:43:47;2.50;;;2.35;;
5871;SDS011;2962;51.312;7.378;2022-12-18T10:46:16;2.05;;;1.95;;
5871;SDS011;2962;51.312;7.378;2022-12-18T10:51:23;2.55;;;2.35;;
5871;SDS011;2962;51.312;7.378;2022-12-18T10:53:59;4.95;;;2.78;;
5871;SDS011;2962;51.312;7.378;2022-12-18T10:56:27;3.58;;;2.70;;
5871;SDS011;2962;51.312;7.378;2022-12-18T10:58:55;2.97;;;2.78;;
5871;SDS011;2962;51.312;7.378;2022-12-18T11:01:27;2.70;;;2.60;;
5871;SDS011;2962;51.312;7.378;2022-12-18T11:06:22;2.13;;;2.03;;
5871;SDS011;2962;51.312;7.378;2022-12-18T11:09:05;2.38;;;2.28;;
5871;SDS011;2962;51.312;7.378;2022-12-18T11:11:48;2.35;;;2.35;;
5871;SDS011;2962;51.312;7.378;2022-12-18T11:17:16;3.38;;;2.88;;
5871;SDS011;2962;51.312;7.378;2022-12-18T11:19:44;6.35;;;4.13;;
5871;SDS011;2962;51.312;7.378;2022-12-18T11:22:20;3.43;;;2.80;;
5871;SDS011;2962;51.312;7.378;2022-12-18T11:27:47;3.13;;;2.50;;
5871;SDS011;2962;51.312;7.378;2022-12-18T11:30:26;2.05;;;1.98;;
5871;SDS011;2962;51.312;7.378;2022-12-18T11:32:59;2.75;;;2.55;;
5871;SDS011;2962;51.312;7.378;2022-12-18T11:38:26;2.90;;;2.70;;
5871;SDS011;2962;51.312;7.378;2022-12-18T11:43:29;2.50;;;2.20;;
5871;SDS011;2962;51.312;7.378;2022-12-18T11:46:06;3.15;;;2.95;;
5871;SDS011;2962;51.312;7.378;2022-12-18T11:48:43;2.20;;;2.10;;
5871;SDS011;2962;51.312;7.378;2022-12-18T11:51:15;2.20;;;2.10;;
5871;SDS011;2962;51.312;7.378;2022-12-18T11:53:47;3.05;;;2.83;;
5871;SDS011;2962;51.312;7.378;2022-12-18T11:59:18;3.00;;;2.80;;
5871;SDS011;2962;51.312;7.378;2022-12-18T12:04:56;2.42;;;2.33;;
5871;SDS011;2962;51.312;7.378;2022-12-18T12:07:37;2.40;;;2.30;;
5871;SDS011;2962;51.312;7.378;2022-12-18T12:18:43;3.58;;;2.75;;
5871;SDS011;2962;51.312;7.378;2022-12-18T12:26:55;3.75;;;2.90;;
5871;SDS011;2962;51.312;7.378;2022-12-18T12:32:29;6.97;;;3.35;;
5871;SDS011;2962;51.312;7.378;2022-12-18T12:40:39;4.15;;;3.08;;
5871;SDS011;2962;51.312;7.378;2022-12-18T12:46:07;3.30;;;3.10;;
5871;SDS011;2962;51.312;7.378;2022-12-18T12:51:06;3.72;;;3.42;;
5871;SDS011;2962;51.312;7.378;2022-12-18T12:53:37;3.50;;;3.20;;
5871;SDS011;2962;51.312;7.378;2022-12-18T12:56:04;4.63;;;3.45;;
5871;SDS011;2962;51.312;7.378;2022-12-18T12:58:38;4.45;;;4.05;;
5871;SDS011;2962;51.312;7.378;2022-12-18T13:01:28;4.03;;;3.72;;
5871;SDS011;2962;51.312;7.378;2022-12-18T13:04:21;5.28;;;4.88;;
5871;SDS011;2962;51.312;7.378;2022-12-18T13:07:39;4.50;;;4.10;;
5871;SDS011;2962;51.312;7.378;2022-12-18T13:12:54;7.65;;;5.68;;
5871;SDS011;2962;51.312;7.378;2022-12-18T13:15:25;6.65;;;5.30;;
5871;SDS011;2962;51.312;7.378;2022-12-18T13:18:03;12.27;;;6.90;;
5871;SDS011;2962;51.312;7.378;2022-12-18T13:20:34;8.93;;;6.82;;
5871;SDS011;2962;51.312;7.378;2022-12-18T13:23:23;6.45;;;5.55;;
5871;SDS011;2962;51.312;7.378;2022-12-18T13:30:59;9.90;;;5.77;;
5871;SDS011;2962;51.312;7.378;2022-12-18T13:35:55;7.90;;;6.33;;
5871;SDS011;2962;51.312;7.378;2022-12-18T13:43:52;8.48;;;6.40;;
5871;SDS011;2962;51.312;7.378;2022-12-18T13:46:27;9.90;;;6.47;;
5871;SDS011;2962;51.312;7.378;2022-12-18T13:49:18;16.63;;;9.55;;
5871;SDS011;2962;51.312;7.378;2022-12-18T13:51:49;13.73;;;8.20;;
5871;SDS011;2962;51.312;7.378;2022-12-18T13:54:19;44.22;;;15.07;;
5871;SDS011;2962;51.312;7.378;2022-12-18T13:56:57;32.30;;;15.07;;
5871;SDS011;2962;51.312;7.378;2022-12-18T13:59:24;22.03;;;11.10;;
5871;SDS011;2962;51.312;7.378;2022-12-18T14:01:55;35.97;;;16.27;;
5871;SDS011;2962;51.312;7.378;2022-12-18T14:04:24;16.77;;;8.60;;
5871;SDS011;2962;51.312;7.378;2022-12-18T14:06:53;35.42;;;18.27;;
5871;SDS011;2962;51.312;7.378;2022-12-18T14:09:24;17.85;;;11.05;;
5871;SDS011;2962;51.312;7.378;2022-12-18T14:11:51;19.10;;;11.32;;
5871;SDS011;2962;51.312;7.378;2022-12-18T14:14:40;12.65;;;8.75;;
5871;SDS011;2962;51.312;7.378;2022-12-18T14:17:10;8.88;;;7.57;;
5871;SDS011;2962;51.312;7.378;2022-12-18T14:19:36;15.50;;;8.77;;
5871;SDS011;2962;51.312;7.378;2022-12-18T14:22:02;15.57;;;7.60;;
5871;SDS011;2962;51.312;7.378;2022-12-18T14:24:28;11.60;;;7.83;;
5871;SDS011;2962;51.312;7.378;2022-12-18T14:26:56;8.95;;;6.68;;
5871;SDS011;2962;51.312;7.378;2022-12-18T14:29:44;12.48;;;7.18;;
5871;SDS011;2962;51.312;7.378;2022-12-18T14:34:34;10.00;;;6.47;;
5871;SDS011;2962;51.312;7.378;2022-12-18T14:37:00;10.50;;;6.90;;
5871;SDS011;2962;51.312;7.378;2022-12-18T14:39:25;8.87;;;6.70;;
5871;SDS011;2962;51.312;7.378;2022-12-18T14:41:50;12.00;;;6.80;;
5871;SDS011;2962;51.312;7.378;2022-12-18T14:44:16;10.50;;;5.33;;
5871;SDS011;2962;51.312;7.378;2022-12-18T14:46:42;29.97;;;14.17;;
5871;SDS011;2962;51.312;7.378;2022-12-18T14:49:26;14.38;;;7.63;;
5871;SDS011;2962;51.312;7.378;2022-12-18T14:51:55;11.88;;;6.53;;
5871;SDS011;2962;51.312;7.378;2022-12-18T14:54:22;10.63;;;6.95;;
5871;SDS011;2962;51.312;7.378;2022-12-18T14:56:51;11.60;;;7.15;;
5871;SDS011;2962;51.312;7.378;2022-12-18T14:59:23;15.10;;;8.27;;
5871;SDS011;2962;51.312;7.378;2022-12-18T15:07:08;9.80;;;7.20;;
5871;SDS011;2962;51.312;7.378;2022-12-18T15:09:34;9.70;;;8.13;;
5871;SDS011;2962;51.312;7.378;2022-12-18T15:12:00;12.47;;;8.10;;
5871;SDS011;2962;51.312;7.378;2022-12-18T15:16:56;12.02;;;7.28;;
5871;SDS011;2962;51.312;7.378;2022-12-18T15:19:25;9.35;;;7.05;;
5871;SDS011;2962;51.312;7.378;2022-12-18T15:22:01;15.40;;;8.73;;
5871;SDS011;2962;51.312;7.378;2022-12-18T15:24:27;14.03;;;7.80;;
5871;SDS011;2962;51.312;7.378;2022-12-18T15:26:56;13.70;;;9.43;;
5871;SDS011;2962;51.312;7.378;2022-12-18T15:29:22;14.80;;;9.70;;
5871;SDS011;2962;51.312;7.378;2022-12-18T15:32:04;19.37;;;10.50;;
5871;SDS011;2962;51.312;7.378;2022-12-18T15:34:30;18.33;;;9.15;;
5871;SDS011;2962;51.312;7.378;2022-12-18T15:36:56;18.05;;;9.18;;
5871;SDS011;2962;51.312;7.378;2022-12-18T15:39:22;21.03;;;9.97;;
5871;SDS011;2962;51.312;7.378;2022-12-18T15:41:47;16.77;;;9.53;;
5871;SDS011;2962;51.312;7.378;2022-12-18T15:44:33;14.75;;;8.82;;
5871;SDS011;2962;51.312;7.378;2022-12-18T15:46:58;17.30;;;9.63;;
5871;SDS011;2962;51.312;7.378;2022-12-18T15:49:24;15.40;;;9.37;;
5871;SDS011;2962;51.312;7.378;2022-12-18T15:51:53;16.40;;;9.00;;
5871;SDS011;2962;51.312;7.378;2022-12-18T15:54:21;12.82;;;8.93;;
5871;SDS011;2962;51.312;7.378;2022-12-18T15:57:10;19.13;;;9.65;;
5871;SDS011;2962;51.312;7.378;2022-12-18T15:59:48;16.38;;;10.35;;
5871;SDS011;2962;51.312;7.378;2022-12-18T16:02:15;16.07;;;10.00;;
5871;SDS011;2962;51.312;7.378;2022-12-18T16:04:42;30.73;;;9.38;;
5871;SDS011;2962;51.312;7.378;2022-12-18T16:07:08;14.90;;;8.47;;
5871;SDS011;2962;51.312;7.378;2022-12-18T16:09:34;18.87;;;10.20;;
5871;SDS011;2962;51.312;7.378;2022-12-18T16:12:00;16.50;;;8.97;;
5871;SDS011;2962;51.312;7.378;2022-12-18T16:14:26;33.07;;;16.60;;
5871;SDS011;2962;51.312;7.378;2022-12-18T16:16:54;41.45;;;16.88;;
5871;SDS011;2962;51.312;7.378;2022-12-18T16:19:22;23.00;;;12.10;;
5871;SDS011;2962;51.312;7.378;2022-12-18T16:21:48;19.60;;;12.00;;
5871;SDS011;2962;51.312;7.378;2022-12-18T16:24:16;19.33;;;10.77;;
5871;SDS011;2962;51.312;7.378;2022-12-18T16:26:43;13.32;;;9.90;;
5871;SDS011;2962;51.312;7.378;2022-12-18T16:29:09;24.42;;;13.93;;
5871;SDS011;2962;51.312;7.378;2022-12-18T16:31:35;22.02;;;11.02;;
5871;SDS011;2962;51.312;7.378;2022-12-18T16:36:35;22.45;;;12.05;;
5871;SDS011;2962;51.312;7.378;2022-12-18T16:39:00;30.23;;;13.40;;
5871;SDS011;2962;51.312;7.378;2022-12-18T16:41:25;21.67;;;11.90;;
5871;SDS011;2962;51.312;7.378;2022-12-18T16:43:57;24.60;;;12.80;;
5871;SDS011;2962;51.312;7.378;2022-12-18T16:46:22;25.53;;;12.37;;
5871;SDS011;2962;51.312;7.378;2022-12-18T16:48:47;16.40;;;9.83;;
5871;SDS011;2962;51.312;7.378;2022-12-18T16:51:13;25.03;;;14.23;;
5871;SDS011;2962;51.312;7.378;2022-12-18T16:53:38;23.63;;;11.70;;
5871;SDS011;2962;51.312;7.378;2022-12-18T16:56:03;19.10;;;11.00;;
5871;SDS011;2962;51.312;7.378;2022-12-18T16:58:28;29.50;;;13.27;;
5871;SDS011;2962;51.312;7.378;2022-12-18T17:00:54;25.70;;;12.50;;
5871;SDS011;2962;51.312;7.378;2022-12-18T17:03:19;26.40;;;13.20;;
5871;SDS011;2962;51.312;7.378;2022-12-18T17:05:44;23.63;;;12.43;;
5871;SDS011;2962;51.312;7.378;2022-12-18T17:08:09;25.67;;;13.10;;
5871;SDS011;2962;51.312;7.378;2022-12-18T17:10:35;25.77;;;14.73;;
5871;SDS011;2962;51.312;7.378;2022-12-18T17:13:00;24.20;;;12.80;;
5871;SDS011;2962;51.312;7.378;2022-12-18T17:15:25;31.27;;;15.07;;